createdAt,value
2022-12-06T00:00:12.016Z,3.14
2022-12-06T00:01:12.028Z,3.15
2022-12-06T00:02:12.046Z,3.13
2022-12-06T00:03:12.081Z,3.13
2022-12-06T00:04:12.009Z,3.13
2022-12-06T00:05:11.985Z,3.14
2022-12-06T00:06:11.966Z,3.14
2022-12-06T00:07:11.971Z,3.14
2022-12-06T00:08:12.011Z,3.11
2022-12-06T00:09:11.931Z,3.10
2022-12-06T00:10:11.897Z,3.08
2022-12-06T00:11:11.952Z,3.06
2022-12-06T00:12:11.889Z,3.03
2022-12-06T00:13:11.880Z,3.05
2022-12-06T00:14:11.870Z,3.05
2022-12-06T00:15:11.856Z,3.05
2022-12-06T00:16:11.893Z,3.03
2022-12-06T00:17:11.866Z,3.06
2022-12-06T00:18:11.811Z,3.06
2022-12-06T00:19:11.808Z,3.02
2022-12-06T00:20:11.815Z,2.97
2022-12-06T00:21:11.798Z,2.95
2022-12-06T00:22:11.833Z,2.92
2022-12-06T00:23:11.784Z,2.89
2022-12-06T00:24:11.768Z,2.89
2022-12-06T00:25:11.737Z,2.89
2022-12-06T00:26:11.733Z,2.92
2022-12-06T00:27:11.730Z,2.92
2022-12-06T00:28:11.773Z,2.93
2022-12-06T00:29:11.735Z,2.96
2022-12-06T00:30:11.681Z,2.96
2022-12-06T00:31:11.675Z,2.96
2022-12-06T00:32:17.658Z,2.97
2022-12-06T00:33:12.685Z,2.97
2022-12-06T00:34:11.655Z,2.99
2022-12-06T00:35:11.612Z,3.00
2022-12-06T00:36:11.625Z,3.00
2022-12-06T00:37:11.636Z,3.03
2022-12-06T00:38:11.581Z,3.02
2022-12-06T00:39:11.603Z,3.02
2022-12-06T00:40:11.572Z,3.00
2022-12-06T00:41:11.565Z,2.99
2022-12-06T00:42:11.568Z,2.99
2022-12-06T00:43:11.536Z,3.00
2022-12-06T00:44:11.585Z,2.99
2022-12-06T00:45:11.503Z,2.97
2022-12-06T00:46:11.600Z,2.99
2022-12-06T00:47:11.493Z,3.00
2022-12-06T00:48:11.497Z,3.02
2022-12-06T00:49:11.463Z,3.03
2022-12-06T00:50:11.498Z,3.05
2022-12-06T00:51:11.467Z,3.06
2022-12-06T00:52:11.417Z,3.05
2022-12-06T00:53:11.450Z,3.05
2022-12-06T00:54:11.408Z,3.05
2022-12-06T00:55:11.398Z,3.08
2022-12-06T00:56:11.406Z,3.10
2022-12-06T00:57:11.408Z,3.11
2022-12-06T00:58:11.356Z,3.11
2022-12-06T00:59:11.359Z,3.13
2022-12-06T01:00:11.339Z,3.14
2022-12-06T01:01:11.400Z,3.13
2022-12-06T01:02:11.370Z,3.11
2022-12-06T01:03:11.428Z,3.11
2022-12-06T01:04:11.287Z,3.11
2022-12-06T01:05:11.280Z,3.08
2022-12-06T01:06:11.271Z,3.08
2022-12-06T01:07:11.338Z,3.08
2022-12-06T01:08:11.336Z,3.10
2022-12-06T01:09:11.256Z,3.05
2022-12-06T01:10:11.237Z,2.99
2022-12-06T01:11:11.198Z,2.97
2022-12-06T01:12:11.188Z,2.99
2022-12-06T01:13:11.180Z,2.99
2022-12-06T01:14:11.207Z,3.00
2022-12-06T01:15:11.162Z,3.05
2022-12-06T01:16:11.234Z,3.06
2022-12-06T01:17:11.222Z,3.10
2022-12-06T01:18:11.125Z,3.11
2022-12-06T01:19:11.142Z,3.13
2022-12-06T01:20:11.100Z,3.14
2022-12-06T01:21:14.539Z,3.14
2022-12-06T01:22:11.115Z,3.14
2022-12-06T01:23:11.080Z,3.14
2022-12-06T01:24:11.103Z,3.11
2022-12-06T01:25:11.065Z,3.11
2022-12-06T01:26:11.040Z,3.11
2022-12-06T01:27:11.064Z,3.11
2022-12-06T01:28:11.013Z,3.11
2022-12-06T01:29:11.002Z,3.11
2022-12-06T01:30:11.002Z,3.13
2022-12-06T01:31:11.038Z,3.11
2022-12-06T01:32:11.007Z,3.14
2022-12-06T01:33:10.952Z,3.15
2022-12-06T01:34:10.943Z,3.17
2022-12-06T01:35:10.945Z,3.14
2022-12-06T01:36:10.963Z,3.15
2022-12-06T01:37:10.908Z,3.17
2022-12-06T01:38:10.903Z,3.14
2022-12-06T01:39:11.051Z,3.14
2022-12-06T01:40:10.894Z,3.13
2022-12-06T01:41:10.876Z,3.13
2022-12-06T01:42:10.888Z,3.14
2022-12-06T01:43:10.877Z,3.13
2022-12-06T01:44:10.837Z,3.14
2022-12-06T01:45:10.858Z,3.15
2022-12-06T01:46:10.854Z,3.14
2022-12-06T01:47:10.788Z,3.15
2022-12-06T01:48:10.828Z,3.13
2022-12-06T01:49:10.798Z,3.11
2022-12-06T01:50:10.778Z,3.11
2022-12-06T01:51:10.987Z,3.10
2022-12-06T01:52:10.745Z,3.10
2022-12-06T01:53:10.789Z,3.06
2022-12-06T01:54:10.740Z,3.06
2022-12-06T01:55:10.715Z,3.08
2022-12-06T01:56:10.732Z,3.10
2022-12-06T01:57:10.720Z,3.11
2022-12-06T01:58:10.693Z,3.14
2022-12-06T01:59:10.690Z,3.14
2022-12-06T02:00:10.681Z,3.14
2022-12-06T02:01:10.732Z,3.15
2022-12-06T02:02:10.726Z,3.18
2022-12-06T02:03:10.629Z,3.18
2022-12-06T02:04:10.608Z,3.18
2022-12-06T02:05:10.604Z,3.18
2022-12-06T02:06:10.597Z,3.18
2022-12-06T02:07:10.621Z,3.20
2022-12-06T02:08:10.611Z,3.18
2022-12-06T02:09:10.551Z,3.20
2022-12-06T02:10:10.561Z,3.20
2022-12-06T02:11:10.519Z,3.20
2022-12-06T02:12:10.583Z,3.20
2022-12-06T02:13:10.488Z,3.21
2022-12-06T02:14:10.492Z,3.23
2022-12-06T02:15:10.503Z,3.23
2022-12-06T02:16:10.472Z,3.23
2022-12-06T02:17:10.525Z,3.23
2022-12-06T02:18:10.475Z,3.24
2022-12-06T02:19:10.443Z,3.24
2022-12-06T02:20:10.411Z,3.24
2022-12-06T02:21:10.442Z,3.26
2022-12-06T02:22:10.413Z,3.28
2022-12-06T02:23:10.403Z,3.26
2022-12-06T02:24:10.406Z,3.28
2022-12-06T02:25:10.362Z,3.28
2022-12-06T02:26:10.365Z,3.28
2022-12-06T02:27:10.362Z,3.29
2022-12-06T02:28:10.361Z,3.28
2022-12-06T02:29:10.303Z,3.26
2022-12-06T02:30:10.314Z,3.28
2022-12-06T02:31:10.342Z,3.28
2022-12-06T02:32:10.297Z,3.26
2022-12-06T02:33:10.273Z,3.26
2022-12-06T02:34:10.314Z,3.24
2022-12-06T02:35:10.257Z,3.28
2022-12-06T02:36:10.239Z,3.24
2022-12-06T02:37:10.259Z,3.24
2022-12-06T02:38:13.180Z,3.23
2022-12-06T02:39:10.195Z,3.23
2022-12-06T02:40:10.227Z,3.21
2022-12-06T02:41:10.174Z,3.20
2022-12-06T02:42:10.165Z,3.20
2022-12-06T02:43:10.179Z,3.20
2022-12-06T02:44:10.135Z,3.18
2022-12-06T02:45:10.185Z,3.21
2022-12-06T02:46:10.188Z,3.21
2022-12-06T02:47:10.104Z,3.23
2022-12-06T02:48:10.109Z,3.21
2022-12-06T02:49:10.115Z,3.24
2022-12-06T02:50:10.099Z,3.26
2022-12-06T02:51:10.099Z,3.24
2022-12-06T02:52:10.075Z,3.24
2022-12-06T02:53:10.048Z,3.24
2022-12-06T02:54:10.064Z,3.24
2022-12-06T02:55:10.029Z,3.26
2022-12-06T02:56:10.028Z,3.26
2022-12-06T02:57:10.041Z,3.26
2022-12-06T02:58:09.991Z,3.26
2022-12-06T02:59:09.999Z,3.29
2022-12-06T03:00:09.957Z,3.28
2022-12-06T03:01:10.017Z,3.28
2022-12-06T03:02:09.969Z,3.26
2022-12-06T03:03:09.978Z,3.28
2022-12-06T03:04:09.908Z,3.28
2022-12-06T03:05:09.901Z,3.28
2022-12-06T03:06:09.888Z,3.26
2022-12-06T03:07:09.902Z,3.26
2022-12-06T03:08:09.947Z,3.26
2022-12-06T03:09:09.912Z,3.24
2022-12-06T03:10:09.873Z,3.24
2022-12-06T03:11:09.844Z,3.24
2022-12-06T03:12:09.834Z,3.21
2022-12-06T03:13:09.799Z,3.23
2022-12-06T03:14:13.366Z,3.21
2022-12-06T03:15:09.831Z,3.21
2022-12-06T03:16:09.821Z,3.21
2022-12-06T03:17:09.835Z,3.21
2022-12-06T03:18:09.742Z,3.21
2022-12-06T03:19:09.761Z,3.21
2022-12-06T03:20:09.721Z,3.24
2022-12-06T03:21:09.727Z,3.23
2022-12-06T03:22:09.744Z,3.21
2022-12-06T03:23:09.724Z,3.23
2022-12-06T03:24:09.673Z,3.21
2022-12-06T03:25:09.690Z,3.21
2022-12-06T03:26:09.652Z,3.21
2022-12-06T03:27:09.643Z,3.21
2022-12-06T03:28:09.687Z,3.21
2022-12-06T03:29:09.638Z,3.23
2022-12-06T03:30:09.622Z,3.23
2022-12-06T03:31:09.678Z,3.21
2022-12-06T03:32:09.598Z,3.24
2022-12-06T03:33:09.617Z,3.23
2022-12-06T03:34:09.594Z,3.24
2022-12-06T03:35:09.574Z,3.23
2022-12-06T03:36:09.558Z,3.23
2022-12-06T03:37:09.524Z,3.24
2022-12-06T03:38:09.526Z,3.24
2022-12-06T03:39:09.529Z,3.28
2022-12-06T03:40:09.508Z,3.31
2022-12-06T03:41:09.560Z,3.31
2022-12-06T03:42:09.469Z,3.33
2022-12-06T03:43:09.455Z,3.33
2022-12-06T03:44:09.462Z,3.36
2022-12-06T03:45:09.452Z,3.40
2022-12-06T03:46:09.524Z,3.43
2022-12-06T03:47:09.511Z,3.43
2022-12-06T03:48:09.393Z,3.45
2022-12-06T03:49:09.402Z,3.48
2022-12-06T03:50:09.412Z,3.52
2022-12-06T03:51:10.085Z,3.54
2022-12-06T03:52:09.363Z,3.57
2022-12-06T03:53:09.387Z,3.57
2022-12-06T03:54:09.331Z,3.60
2022-12-06T03:55:09.326Z,3.61
2022-12-06T03:56:09.318Z,3.65
2022-12-06T03:57:09.300Z,3.66
2022-12-06T03:58:09.289Z,3.68
2022-12-06T03:59:09.286Z,3.69
2022-12-06T04:00:09.254Z,3.69
2022-12-06T04:01:09.278Z,3.68
2022-12-06T04:02:09.307Z,3.69
2022-12-06T04:03:09.253Z,3.69
2022-12-06T04:04:09.336Z,3.70
2022-12-06T04:05:09.204Z,3.69
2022-12-06T04:06:09.208Z,3.69
2022-12-06T04:07:09.191Z,3.69
2022-12-06T04:08:09.233Z,3.69
2022-12-06T04:09:09.164Z,3.65
2022-12-06T04:10:09.146Z,3.66
2022-12-06T04:11:09.165Z,3.62
2022-12-06T04:12:09.140Z,3.62
2022-12-06T04:13:09.094Z,3.65
2022-12-06T04:14:09.113Z,3.62
2022-12-06T04:15:09.081Z,3.65
2022-12-06T04:16:09.122Z,3.66
2022-12-06T04:17:09.082Z,3.66
2022-12-06T04:18:09.052Z,3.68
2022-12-06T04:19:09.026Z,3.70
2022-12-06T04:20:09.026Z,3.69
2022-12-06T04:21:08.993Z,3.70
2022-12-06T04:22:09.006Z,3.72
2022-12-06T04:23:09.022Z,3.72
2022-12-06T04:24:08.962Z,3.73
2022-12-06T04:25:08.972Z,3.75
2022-12-06T04:26:08.986Z,3.76
2022-12-06T04:27:08.937Z,3.78
2022-12-06T04:28:08.963Z,3.78
2022-12-06T04:29:08.917Z,3.78
2022-12-06T04:30:08.895Z,3.79
2022-12-06T04:31:09.031Z,3.80
2022-12-06T04:32:08.904Z,3.80
2022-12-06T04:33:08.879Z,3.80
2022-12-06T04:34:08.860Z,3.80
2022-12-06T04:35:08.844Z,3.83
2022-12-06T04:36:08.825Z,3.83
2022-12-06T04:37:08.868Z,3.84
2022-12-06T04:38:08.825Z,3.84
2022-12-06T04:39:08.818Z,3.87
2022-12-06T04:40:08.785Z,3.88
2022-12-06T04:41:08.758Z,3.88
2022-12-06T04:42:08.818Z,3.88
2022-12-06T04:43:08.738Z,3.88
2022-12-06T04:44:08.769Z,3.90
2022-12-06T04:45:08.730Z,3.87
2022-12-06T04:46:08.806Z,3.87
2022-12-06T04:47:08.750Z,3.87
2022-12-06T04:48:08.697Z,3.86
2022-12-06T04:49:08.678Z,3.86
2022-12-06T04:50:08.674Z,3.84
2022-12-06T04:51:08.690Z,3.84
2022-12-06T04:52:08.667Z,3.86
2022-12-06T04:53:08.638Z,3.87
2022-12-06T04:54:08.608Z,3.87
2022-12-06T04:55:08.632Z,3.87
2022-12-06T04:56:08.588Z,3.87
2022-12-06T04:57:08.609Z,3.87
2022-12-06T04:58:08.599Z,3.87
2022-12-06T04:59:08.549Z,3.88
2022-12-06T05:00:08.567Z,3.88
2022-12-06T05:01:08.548Z,3.87
2022-12-06T05:02:08.523Z,3.88
2022-12-06T05:03:08.524Z,3.88
2022-12-06T05:04:08.529Z,3.88
2022-12-06T05:05:08.483Z,3.88
2022-12-06T05:06:08.481Z,3.87
2022-12-06T05:07:08.491Z,3.87
2022-12-06T05:08:08.518Z,3.87
2022-12-06T05:09:08.445Z,3.90
2022-12-06T05:10:08.422Z,3.90
2022-12-06T05:11:08.416Z,3.91
2022-12-06T05:12:08.391Z,3.91
2022-12-06T05:13:10.331Z,3.93
2022-12-06T05:14:08.414Z,3.96
2022-12-06T05:15:08.363Z,3.96
2022-12-06T05:16:08.429Z,3.97
2022-12-06T05:17:08.334Z,3.96
2022-12-06T05:18:08.467Z,3.96
2022-12-06T05:19:08.346Z,3.97
2022-12-06T05:20:08.337Z,3.96
2022-12-06T05:21:08.291Z,3.96
2022-12-06T05:22:08.273Z,4.00
2022-12-06T05:23:08.296Z,4.00
2022-12-06T05:24:08.318Z,4.00
2022-12-06T05:25:08.246Z,4.00
2022-12-06T05:26:08.225Z,4.04
2022-12-06T05:27:08.234Z,4.06
2022-12-06T05:28:08.205Z,4.06
2022-12-06T05:29:08.257Z,4.06
2022-12-06T05:30:08.204Z,4.04
2022-12-06T05:31:08.242Z,4.05
2022-12-06T05:32:08.155Z,4.00
2022-12-06T05:33:08.158Z,4.00
2022-12-06T05:34:08.167Z,4.02
2022-12-06T05:35:08.189Z,4.02
2022-12-06T05:36:08.113Z,4.04
2022-12-06T05:37:08.117Z,4.02
2022-12-06T05:38:08.129Z,4.00
2022-12-06T05:39:08.090Z,3.98
2022-12-06T05:40:08.071Z,4.00
2022-12-06T05:41:08.110Z,4.02
2022-12-06T05:42:08.037Z,4.02
2022-12-06T05:43:08.040Z,4.02
2022-12-06T05:44:08.031Z,4.00
2022-12-06T05:45:08.048Z,3.98
2022-12-06T05:46:08.076Z,3.97
2022-12-06T05:47:07.990Z,3.94
2022-12-06T05:48:07.981Z,3.96
2022-12-06T05:49:07.983Z,3.96
2022-12-06T05:50:07.963Z,3.96
2022-12-06T05:51:07.984Z,3.97
2022-12-06T05:52:07.949Z,3.96
2022-12-06T05:53:07.953Z,3.93
2022-12-06T05:54:07.922Z,3.93
2022-12-06T05:55:07.891Z,3.93
2022-12-06T05:56:07.892Z,3.91
2022-12-06T05:57:07.916Z,3.93
2022-12-06T05:58:07.872Z,3.91
2022-12-06T05:59:07.859Z,3.90
2022-12-06T06:00:07.843Z,3.91
2022-12-06T06:01:07.833Z,3.90
2022-12-06T06:02:07.952Z,3.90
2022-12-06T06:03:07.926Z,3.88
2022-12-06T06:04:07.802Z,3.87
2022-12-06T06:05:07.802Z,3.88
2022-12-06T06:06:07.774Z,3.87
2022-12-06T06:07:07.785Z,3.86
2022-12-06T06:08:07.761Z,3.86
2022-12-06T06:09:07.722Z,3.84
2022-12-06T06:10:07.745Z,3.87
2022-12-06T06:11:07.715Z,3.87
2022-12-06T06:12:12.255Z,3.88
2022-12-06T06:13:08.686Z,3.91
2022-12-06T06:14:07.663Z,3.91
2022-12-06T06:15:07.670Z,3.93
2022-12-06T06:16:07.688Z,3.91
2022-12-06T06:17:07.701Z,3.91
2022-12-06T06:18:07.614Z,3.93
2022-12-06T06:19:07.648Z,3.94
2022-12-06T06:20:07.597Z,3.93
2022-12-06T06:21:07.574Z,3.87
2022-12-06T06:22:07.630Z,3.86
2022-12-06T06:23:07.595Z,3.84
2022-12-06T06:24:07.551Z,3.88
2022-12-06T06:25:07.524Z,3.90
2022-12-06T06:26:07.537Z,3.93
2022-12-06T06:27:07.515Z,3.93
2022-12-06T06:28:07.505Z,3.94
2022-12-06T06:29:07.484Z,3.91
2022-12-06T06:30:07.508Z,3.90
2022-12-06T06:31:07.509Z,3.88
2022-12-06T06:32:07.547Z,3.90
2022-12-06T06:33:07.455Z,3.88
2022-12-06T06:34:07.449Z,3.90
2022-12-06T06:35:07.458Z,3.88
2022-12-06T06:36:07.439Z,3.91
2022-12-06T06:37:07.408Z,3.90
2022-12-06T06:38:07.421Z,3.91
2022-12-06T06:39:07.392Z,3.90
2022-12-06T06:40:07.392Z,3.91
2022-12-06T06:41:07.363Z,3.91
2022-12-06T06:42:07.361Z,3.93
2022-12-06T06:43:07.317Z,3.91
2022-12-06T06:44:07.322Z,3.93
2022-12-06T06:45:07.372Z,3.94
2022-12-06T06:46:07.385Z,3.94
2022-12-06T06:47:07.349Z,3.94
2022-12-06T06:48:07.292Z,3.94
2022-12-06T06:49:07.267Z,3.97
2022-12-06T06:50:07.248Z,3.96
2022-12-06T06:51:07.244Z,3.97
2022-12-06T06:52:07.242Z,3.96
2022-12-06T06:53:07.211Z,3.94
2022-12-06T06:54:07.201Z,3.96
2022-12-06T06:55:07.191Z,3.96
2022-12-06T06:56:07.212Z,3.96
2022-12-06T06:57:07.163Z,3.94
2022-12-06T06:58:07.178Z,3.94
2022-12-06T06:59:07.131Z,3.94
2022-12-06T07:00:07.173Z,3.91
2022-12-06T07:01:07.317Z,3.88
2022-12-06T07:02:07.277Z,3.90
2022-12-06T07:03:07.071Z,3.88
2022-12-06T07:04:07.119Z,3.88
2022-12-06T07:05:07.061Z,3.90
2022-12-06T07:06:07.105Z,3.90
2022-12-06T07:07:07.043Z,3.90
2022-12-06T07:08:07.124Z,3.91
2022-12-06T07:09:07.033Z,3.91
2022-12-06T07:10:06.993Z,3.94
2022-12-06T07:11:07.010Z,3.96
2022-12-06T07:12:07.002Z,3.97
2022-12-06T07:13:07.008Z,4.02
2022-12-06T07:14:06.963Z,3.98
2022-12-06T07:15:07.026Z,3.98
2022-12-06T07:16:06.924Z,4.00
2022-12-06T07:17:07.044Z,4.00
2022-12-06T07:18:06.948Z,3.98
2022-12-06T07:19:09.206Z,4.00
2022-12-06T07:20:06.913Z,4.02
2022-12-06T07:21:06.884Z,4.06
2022-12-06T07:22:06.864Z,4.06
2022-12-06T07:23:06.894Z,4.05
2022-12-06T07:24:06.858Z,4.06
2022-12-06T07:25:06.824Z,4.06
2022-12-06T07:26:06.854Z,4.06
2022-12-06T07:27:06.815Z,4.06
2022-12-06T07:28:06.804Z,4.08
2022-12-06T07:29:06.782Z,4.11
2022-12-06T07:30:06.802Z,4.11
2022-12-06T07:31:06.808Z,4.14
2022-12-06T07:32:06.757Z,4.12
2022-12-06T07:33:06.736Z,4.11
2022-12-06T07:34:06.728Z,4.08
2022-12-06T07:35:06.717Z,4.08
2022-12-06T07:36:14.314Z,4.06
2022-12-06T07:37:07.717Z,4.04
2022-12-06T07:38:06.710Z,4.05
2022-12-06T07:39:11.533Z,4.05
2022-12-06T07:40:07.649Z,4.06
2022-12-06T07:41:06.732Z,4.08
2022-12-06T07:42:06.655Z,4.05
2022-12-06T07:43:06.634Z,4.08
2022-12-06T07:44:06.625Z,4.08
2022-12-06T07:45:06.653Z,4.08
2022-12-06T07:46:06.692Z,4.08
2022-12-06T07:47:06.589Z,4.08
2022-12-06T07:48:06.591Z,4.09
2022-12-06T07:49:06.545Z,4.09
2022-12-06T07:50:06.555Z,4.06
2022-12-06T07:51:06.554Z,4.05
2022-12-06T07:52:06.595Z,4.04
2022-12-06T07:53:06.500Z,4.05
2022-12-06T07:54:06.490Z,4.05
2022-12-06T07:55:06.504Z,4.04
2022-12-06T07:56:06.506Z,4.04
2022-12-06T07:57:06.512Z,4.05
2022-12-06T07:58:06.451Z,4.04
2022-12-06T07:59:06.457Z,4.05
2022-12-06T08:00:06.423Z,4.05
2022-12-06T08:01:06.502Z,4.06
2022-12-06T08:02:06.453Z,4.04
2022-12-06T08:03:06.408Z,4.04
2022-12-06T08:04:06.444Z,4.04
2022-12-06T08:05:06.400Z,4.04
2022-12-06T08:06:06.360Z,4.04
2022-12-06T08:07:06.395Z,4.06
2022-12-06T08:08:06.407Z,4.05
2022-12-06T08:09:06.323Z,4.06
2022-12-06T08:10:06.303Z,4.06
2022-12-06T08:11:06.315Z,4.08
2022-12-06T08:12:06.316Z,4.06
2022-12-06T08:13:06.377Z,4.05
2022-12-06T08:14:06.271Z,4.05
2022-12-06T08:15:06.295Z,4.04
2022-12-06T08:16:06.361Z,4.00
2022-12-06T08:17:06.228Z,4.00
2022-12-06T08:18:06.218Z,3.97
2022-12-06T08:19:06.210Z,3.97
2022-12-06T08:20:06.222Z,3.96
2022-12-06T08:21:06.225Z,3.94
2022-12-06T08:22:06.155Z,3.96
2022-12-06T08:23:06.146Z,3.93
2022-12-06T08:24:06.207Z,4.00
2022-12-06T08:25:06.128Z,4.04
2022-12-06T08:26:06.118Z,4.08
2022-12-06T08:27:06.181Z,4.08
2022-12-06T08:28:06.141Z,4.12
2022-12-06T08:29:06.131Z,4.15
2022-12-06T08:30:06.085Z,4.16
2022-12-06T08:31:06.115Z,4.18
2022-12-06T08:32:06.069Z,4.18
2022-12-06T08:33:06.123Z,4.22
2022-12-06T08:34:06.038Z,4.20
2022-12-06T08:35:06.031Z,4.22
2022-12-06T08:36:05.997Z,4.22
2022-12-06T08:37:06.018Z,4.22
2022-12-06T08:38:06.004Z,4.23
2022-12-06T08:39:06.023Z,4.23
2022-12-06T08:40:05.994Z,4.23
2022-12-06T08:41:05.954Z,4.23
2022-12-06T08:42:06.324Z,4.23
2022-12-06T08:43:06.006Z,4.18
2022-12-06T08:44:05.952Z,4.20
2022-12-06T08:45:05.934Z,4.20
2022-12-06T08:46:06.004Z,4.22
2022-12-06T08:47:05.894Z,4.23
2022-12-06T08:48:05.851Z,4.23
2022-12-06T08:49:05.895Z,4.22
2022-12-06T08:50:05.848Z,4.22
2022-12-06T08:51:06.883Z,4.22
2022-12-06T08:52:05.825Z,4.24
2022-12-06T08:53:05.814Z,4.27
2022-12-06T08:54:05.827Z,4.29
2022-12-06T08:55:05.866Z,4.29
2022-12-06T08:56:05.795Z,4.27
2022-12-06T08:57:05.794Z,4.16
2022-12-06T08:58:05.745Z,4.12
2022-12-06T08:59:05.765Z,4.11
2022-12-06T09:00:05.762Z,4.09
2022-12-06T09:01:05.824Z,4.12
2022-12-06T09:02:05.946Z,4.11
2022-12-06T09:03:06.657Z,4.11
2022-12-06T09:04:06.200Z,4.11
2022-12-06T09:05:06.183Z,4.14
2022-12-06T09:06:06.064Z,4.16
2022-12-06T09:07:11.346Z,4.18
2022-12-06T09:08:06.724Z,4.22
2022-12-06T09:09:05.659Z,4.24
2022-12-06T09:10:05.592Z,4.26
2022-12-06T09:11:05.598Z,4.27
2022-12-06T09:12:05.622Z,4.29
2022-12-06T09:13:05.601Z,4.27
2022-12-06T09:14:06.595Z,4.30
2022-12-06T09:15:05.880Z,4.29
2022-12-06T09:16:05.580Z,4.32
2022-12-06T09:17:05.562Z,4.33
2022-12-06T09:18:05.517Z,4.33
2022-12-06T09:19:05.515Z,4.36
2022-12-06T09:20:06.505Z,4.37
2022-12-06T09:21:05.489Z,4.36
2022-12-06T09:22:05.469Z,4.37
2022-12-06T09:23:05.521Z,4.40
2022-12-06T09:24:05.440Z,4.40
2022-12-06T09:25:05.430Z,4.40
2022-12-06T09:26:05.422Z,4.37
2022-12-06T09:27:05.793Z,4.37
2022-12-06T09:28:05.401Z,4.40
2022-12-06T09:29:05.417Z,4.42
2022-12-06T09:30:05.415Z,4.42
2022-12-06T09:31:05.425Z,4.42
2022-12-06T09:32:05.364Z,4.40
2022-12-06T09:33:05.430Z,4.37
2022-12-06T09:34:05.376Z,4.40
2022-12-06T09:35:05.422Z,4.40
2022-12-06T09:36:05.423Z,4.40
2022-12-06T09:37:05.348Z,4.40
2022-12-06T09:38:05.350Z,4.40
2022-12-06T09:39:05.264Z,4.41
2022-12-06T09:40:05.254Z,4.41
2022-12-06T09:41:05.254Z,4.41
2022-12-06T09:42:05.351Z,4.37
2022-12-06T09:43:05.201Z,4.37
2022-12-06T09:44:05.245Z,4.36
2022-12-06T09:45:05.194Z,4.36
2022-12-06T09:46:05.265Z,4.36
2022-12-06T09:47:05.343Z,4.36
2022-12-06T09:48:05.179Z,4.37
2022-12-06T09:49:05.143Z,4.37
2022-12-06T09:50:05.167Z,4.41
2022-12-06T09:51:05.162Z,4.37
2022-12-06T09:52:05.101Z,4.37
2022-12-06T09:53:05.135Z,4.37
2022-12-06T09:54:05.108Z,4.34
2022-12-06T09:55:05.097Z,4.32
2022-12-06T09:56:05.053Z,4.29
2022-12-06T09:57:05.125Z,4.26
2022-12-06T09:58:05.045Z,4.27
2022-12-06T09:59:05.037Z,4.29
2022-12-06T10:00:10.910Z,4.29
2022-12-06T10:01:06.044Z,4.29
2022-12-06T10:02:05.147Z,4.30
2022-12-06T10:03:05.050Z,4.30
2022-12-06T10:04:04.982Z,4.30
2022-12-06T10:05:04.999Z,4.32
2022-12-06T10:06:04.978Z,4.32
2022-12-06T10:07:04.927Z,4.33
2022-12-06T10:08:05.094Z,4.29
2022-12-06T10:09:05.056Z,4.29
2022-12-06T10:10:04.910Z,4.29
2022-12-06T10:11:08.506Z,4.29
2022-12-06T10:12:04.872Z,4.32
2022-12-06T10:13:05.000Z,4.33
2022-12-06T10:14:04.899Z,4.34
2022-12-06T10:15:04.831Z,4.33
2022-12-06T10:16:04.886Z,4.32
2022-12-06T10:17:06.677Z,4.32
2022-12-06T10:18:04.810Z,4.32
2022-12-06T10:19:04.768Z,4.30
2022-12-06T10:20:05.001Z,4.30
2022-12-06T10:21:04.787Z,4.29
2022-12-06T10:22:04.791Z,4.30
2022-12-06T10:23:04.728Z,4.30
2022-12-06T10:24:04.718Z,4.27
2022-12-06T10:25:04.762Z,4.22
2022-12-06T10:26:04.693Z,4.16
2022-12-06T10:27:04.683Z,4.12
2022-12-06T10:28:04.743Z,4.12
2022-12-06T10:29:04.660Z,4.12
2022-12-06T10:30:04.781Z,4.12
2022-12-06T10:31:04.691Z,4.11
2022-12-06T10:32:04.648Z,4.09
2022-12-06T10:33:04.640Z,4.09
2022-12-06T10:34:04.633Z,4.09
2022-12-06T10:35:04.957Z,4.12
2022-12-06T10:36:04.650Z,4.11
2022-12-06T10:37:04.578Z,4.09
2022-12-06T10:38:04.564Z,4.09
2022-12-06T10:39:04.584Z,4.08
2022-12-06T10:40:04.867Z,4.11
2022-12-06T10:41:04.547Z,4.11
2022-12-06T10:42:04.507Z,4.09
2022-12-06T10:43:04.544Z,4.08
2022-12-06T10:44:04.544Z,4.08
2022-12-06T10:45:04.518Z,4.09
2022-12-06T10:46:08.944Z,4.08
2022-12-06T10:47:05.740Z,4.09
2022-12-06T10:48:04.432Z,4.11
2022-12-06T10:49:04.506Z,4.08
2022-12-06T10:50:04.669Z,4.08
2022-12-06T10:51:04.434Z,4.08
2022-12-06T10:52:04.492Z,4.06
2022-12-06T10:53:04.413Z,4.09
2022-12-06T10:54:04.373Z,4.08
2022-12-06T10:55:04.419Z,4.09
2022-12-06T10:56:04.344Z,4.05
2022-12-06T10:57:04.347Z,4.04
2022-12-06T10:58:04.325Z,4.02
2022-12-06T10:59:04.696Z,3.97
2022-12-06T11:00:05.837Z,3.97
2022-12-06T11:01:04.367Z,3.94
2022-12-06T11:02:04.419Z,3.96
2022-12-06T11:03:04.328Z,3.96
2022-12-06T11:04:04.279Z,3.94
2022-12-06T11:05:04.296Z,3.91
2022-12-06T11:06:04.234Z,3.94
2022-12-06T11:07:04.269Z,3.91
2022-12-06T11:08:04.244Z,3.90
2022-12-06T11:09:04.192Z,3.90
2022-12-06T11:10:04.240Z,3.93
2022-12-06T11:11:04.169Z,3.94
2022-12-06T11:12:04.252Z,3.97
2022-12-06T11:13:04.366Z,3.97
2022-12-06T11:14:04.108Z,3.98
2022-12-06T11:15:04.143Z,4.05
2022-12-06T11:16:04.327Z,4.09
2022-12-06T11:17:04.077Z,4.09
2022-12-06T11:18:04.078Z,4.09
2022-12-06T11:19:04.070Z,4.12
2022-12-06T11:20:04.082Z,4.14
2022-12-06T11:21:04.079Z,4.15
2022-12-06T11:22:04.092Z,4.15
2022-12-06T11:23:04.051Z,4.15
2022-12-06T11:24:04.132Z,4.15
2022-12-06T11:25:03.996Z,4.16
2022-12-06T11:26:03.982Z,4.16
2022-12-06T11:27:04.021Z,4.18
2022-12-06T11:28:03.972Z,4.16
2022-12-06T11:29:03.965Z,4.16
2022-12-06T11:30:03.943Z,4.16
2022-12-06T11:31:03.999Z,4.16
2022-12-06T11:32:04.011Z,4.14
2022-12-06T11:33:03.903Z,4.14
2022-12-06T11:34:03.901Z,4.12
2022-12-06T11:35:03.902Z,4.14
2022-12-06T11:36:03.918Z,4.12
2022-12-06T11:37:03.876Z,4.11
2022-12-06T11:38:03.861Z,4.08
2022-12-06T11:39:03.849Z,4.05
2022-12-06T11:40:03.887Z,4.04
2022-12-06T11:41:03.804Z,4.02
2022-12-06T11:42:03.885Z,4.02
2022-12-06T11:43:03.814Z,4.00
2022-12-06T11:44:03.773Z,3.96
2022-12-06T11:45:03.974Z,3.94
2022-12-06T11:46:03.783Z,3.93
2022-12-06T11:47:03.837Z,3.91
2022-12-06T11:48:03.810Z,3.94
2022-12-06T11:49:03.703Z,3.98
2022-12-06T11:50:09.244Z,4.02
2022-12-06T11:51:04.695Z,4.05
2022-12-06T11:52:03.675Z,4.09
2022-12-06T11:53:03.703Z,4.09
2022-12-06T11:54:03.695Z,4.11
2022-12-06T11:55:03.930Z,4.06
2022-12-06T11:56:03.625Z,4.04
2022-12-06T11:57:03.660Z,4.02
2022-12-06T11:58:03.651Z,4.02
2022-12-06T11:59:03.657Z,4.04
2022-12-06T12:00:03.938Z,4.02
2022-12-06T12:01:03.578Z,4.00
2022-12-06T12:02:03.666Z,3.98
2022-12-06T12:03:03.626Z,3.98
2022-12-06T12:04:03.620Z,3.96
2022-12-06T12:05:03.580Z,3.97
2022-12-06T12:06:03.530Z,3.98
2022-12-06T12:07:03.503Z,3.91
2022-12-06T12:08:03.598Z,3.91
2022-12-06T12:09:03.553Z,3.94
2022-12-06T12:10:03.503Z,3.98
2022-12-06T12:11:03.470Z,4.00
2022-12-06T12:12:03.454Z,4.02
2022-12-06T12:13:03.482Z,4.02
2022-12-06T12:14:03.419Z,4.05
2022-12-06T12:15:03.755Z,4.05
2022-12-06T12:16:03.462Z,4.06
2022-12-06T12:17:03.461Z,4.08
2022-12-06T12:18:03.414Z,4.06
2022-12-06T12:19:03.413Z,4.05
2022-12-06T12:20:03.340Z,4.00
2022-12-06T12:21:03.383Z,3.98
2022-12-06T12:22:03.379Z,3.97
2022-12-06T12:23:03.320Z,3.93
2022-12-06T12:24:03.343Z,3.93
2022-12-06T12:25:18.302Z,3.93
2022-12-06T12:26:04.333Z,3.96
2022-12-06T12:27:03.296Z,3.96
2022-12-06T12:28:03.300Z,3.97
2022-12-06T12:29:03.235Z,3.98
2022-12-06T12:30:03.271Z,3.94
2022-12-06T12:31:03.226Z,3.96
2022-12-06T12:32:03.278Z,4.00
2022-12-06T12:33:03.274Z,4.02
2022-12-06T12:34:03.213Z,4.05
2022-12-06T12:35:03.354Z,4.04
2022-12-06T12:36:03.162Z,3.98
2022-12-06T12:37:03.194Z,4.02
2022-12-06T12:38:03.187Z,3.98
2022-12-06T12:39:03.149Z,3.98
2022-12-06T12:40:09.024Z,3.97
2022-12-06T12:41:04.151Z,3.97
2022-12-06T12:42:03.114Z,3.94
2022-12-06T12:43:03.087Z,3.96
2022-12-06T12:44:29.005Z,3.98
2022-12-06T12:45:04.271Z,4.04
2022-12-06T12:46:03.443Z,4.02
2022-12-06T12:47:03.079Z,4.06
2022-12-06T12:48:03.033Z,4.09
2022-12-06T12:49:03.010Z,4.11
2022-12-06T12:50:03.010Z,4.15
2022-12-06T12:51:03.028Z,4.14
2022-12-06T12:52:03.016Z,4.14
2022-12-06T12:53:02.970Z,4.14
2022-12-06T12:54:02.977Z,4.09
2022-12-06T12:55:03.293Z,4.09
2022-12-06T12:56:02.916Z,4.08
2022-12-06T12:57:02.941Z,4.05
2022-12-06T12:58:02.957Z,4.02
2022-12-06T12:59:02.888Z,3.97
2022-12-06T13:00:02.884Z,3.93
2022-12-06T13:01:02.920Z,3.87
2022-12-06T13:02:02.902Z,3.86
2022-12-06T13:03:02.837Z,3.88
2022-12-06T13:04:03.126Z,3.93
2022-12-06T13:05:31.089Z,3.94
2022-12-06T13:06:03.828Z,3.96
2022-12-06T13:07:02.811Z,4.00
2022-12-06T13:08:03.169Z,4.00
2022-12-06T13:09:02.864Z,4.04
2022-12-06T13:10:02.792Z,4.04
2022-12-06T13:11:03.104Z,4.02
2022-12-06T13:12:02.772Z,3.98
2022-12-06T13:13:02.739Z,3.97
2022-12-06T13:14:02.760Z,3.94
2022-12-06T13:15:03.001Z,3.90
2022-12-06T13:16:07.270Z,3.91
2022-12-06T13:17:03.753Z,3.91
2022-12-06T13:18:02.674Z,3.93